createdAt,value
2022-09-27T00:02:15.581Z,49.89
2022-09-27T00:07:08.031Z,49.88
2022-09-27T00:12:00.500Z,49.9
2022-09-27T00:16:53.138Z,49.9
2022-09-27T00:21:45.647Z,49.95
2022-09-27T00:26:38.200Z,49.95
2022-09-27T00:31:32.860Z,50.01
2022-09-27T00:36:24.865Z,49.91
2022-09-27T00:41:17.239Z,50.01
2022-09-27T00:46:09.108Z,49.97
2022-09-27T00:51:01.661Z,49.96
2022-09-27T00:55:54.012Z,50.01
2022-09-27T01:00:46.320Z,50.1
2022-09-27T01:05:38.986Z,50.12
2022-09-27T01:10:31.347Z,50.12
2022-09-27T01:15:24.028Z,50.11
2022-09-27T01:20:17.870Z,50.08
2022-09-27T01:25:10.074Z,50.07
2022-09-27T01:30:02.160Z,49.96
2022-09-27T01:34:54.999Z,49.92
2022-09-27T01:39:47.210Z,50.01
2022-09-27T01:44:39.565Z,50.05
2022-09-27T01:49:31.981Z,50.05
2022-09-27T01:54:24.562Z,49.95
2022-09-27T01:59:17.045Z,50.18
2022-09-27T02:18:42.992Z,50.09
2022-09-27T02:28:27.813Z,50.15
2022-09-27T02:33:20.022Z,50.24
2022-09-27T02:38:12.581Z,50.19
2022-09-27T02:43:05.072Z,50.18
2022-09-27T02:47:57.457Z,50.22
2022-09-27T02:52:49.708Z,50.29
2022-09-27T02:57:42.331Z,50.39
2022-09-27T03:02:34.926Z,50.33
2022-09-27T03:07:27.213Z,50.35
2022-09-27T03:12:19.891Z,50.36
2022-09-27T03:17:12.510Z,50.38
2022-09-27T03:22:04.848Z,50.39
2022-09-27T03:26:57.372Z,50.35
2022-09-27T03:36:37.600Z,50.36
2022-09-27T03:41:31.237Z,50.38
2022-09-27T03:46:23.647Z,50.43
2022-09-27T03:51:16.068Z,50.4
2022-09-27T03:56:08.484Z,50.35
2022-09-27T04:01:00.804Z,50.43
2022-09-27T04:05:53.321Z,50.44
2022-09-27T04:10:45.889Z,50.37
2022-09-27T04:15:38.529Z,50.4
2022-09-27T04:20:30.862Z,50.32
2022-09-27T04:25:23.491Z,50.37
2022-09-27T04:30:16.004Z,50.31
2022-09-27T04:35:08.337Z,50.31
2022-09-27T04:40:00.911Z,50.34
2022-09-27T04:44:53.301Z,50.47
2022-09-27T04:49:45.515Z,51.57
2022-09-27T04:54:38.046Z,50.87
2022-09-27T04:59:30.442Z,50.76
2022-09-27T05:04:23.095Z,51.09
2022-09-27T05:09:15.850Z,51.66
2022-09-27T05:14:08.292Z,50.54
2022-09-27T05:19:00.829Z,54.25
2022-09-27T05:23:52.849Z,49.97
2022-09-27T05:28:45.219Z,49.79
2022-09-27T05:33:37.611Z,49.47
2022-09-27T05:38:29.839Z,49.62
2022-09-27T05:43:22.368Z,49.25
2022-09-27T05:48:14.826Z,49.12
2022-09-27T05:53:07.068Z,49.27
2022-09-27T05:57:59.694Z,49.26
2022-09-27T06:02:52.149Z,49.22
2022-09-27T06:07:44.407Z,49.28
2022-09-27T06:12:36.817Z,49.28
2022-09-27T06:17:29.274Z,49.3
2022-09-27T06:22:21.647Z,49.4
2022-09-27T06:27:14.154Z,49.35
2022-09-27T06:32:06.871Z,49.44
2022-09-27T06:36:59.321Z,49.45
2022-09-27T06:41:51.685Z,49.46
2022-09-27T06:46:44.097Z,50.38
2022-09-27T06:51:36.862Z,50.02
2022-09-27T06:56:29.348Z,52.45
2022-09-27T07:01:22.037Z,50.75
2022-09-27T07:06:14.408Z,51.59
2022-09-27T07:11:06.914Z,51.5
2022-09-27T07:15:59.440Z,51.21
2022-09-27T07:20:51.808Z,50.74
2022-09-27T07:25:44.852Z,50.81
2022-09-27T07:30:36.944Z,51.11
2022-09-27T07:35:29.035Z,50.96
2022-09-27T07:40:21.530Z,50.98
2022-09-27T07:45:13.987Z,50.53
2022-09-27T07:50:06.630Z,50.43
2022-09-27T07:54:58.820Z,50.1
2022-09-27T07:59:51.147Z,50.45
2022-09-27T08:04:43.677Z,50.31
2022-09-27T08:09:36.367Z,49.85
2022-09-27T08:14:28.791Z,50.28
2022-09-27T08:24:13.367Z,50.29
2022-09-27T08:33:58.120Z,49.92
2022-09-27T08:38:50.810Z,50.36
2022-09-27T08:43:43.237Z,49.78
2022-09-27T08:53:27.901Z,49
2022-09-27T08:58:20.044Z,49.02
2022-09-27T09:03:12.313Z,49.11
2022-09-27T09:08:04.691Z,49.42
2022-09-27T09:12:57.027Z,49.49
2022-09-27T09:17:49.476Z,49.39
2022-09-27T09:22:42.021Z,49.65
2022-09-27T09:27:34.584Z,49.32
2022-09-27T09:32:26.907Z,49.25
2022-09-27T09:37:19.141Z,49.13
2022-09-27T09:42:11.336Z,50.11
2022-09-27T09:47:03.852Z,50.13
2022-09-27T09:51:56.360Z,50.02
2022-09-27T09:56:48.694Z,49.96
2022-09-27T10:01:41.487Z,49.9
2022-09-27T10:06:33.899Z,49.91
2022-09-27T10:11:26.150Z,49.89
2022-09-27T10:16:18.667Z,49.98
2022-09-27T10:21:11.106Z,49.99
2022-09-27T10:26:03.486Z,49.96
2022-09-27T10:30:55.907Z,49.93
2022-09-27T10:35:48.194Z,50.13
2022-09-27T10:40:41.049Z,49.97
2022-09-27T10:45:33.676Z,49.74
2022-09-27T10:50:46.384Z,49.75
2022-09-27T10:55:18.529Z,49.81
2022-09-27T11:00:10.895Z,49.85
2022-09-27T11:05:03.329Z,49.65
2022-09-27T11:09:55.793Z,49.84
2022-09-27T11:14:48.283Z,49.76
2022-09-27T11:19:40.600Z,49.93
2022-09-27T11:24:32.939Z,49.87
2022-09-27T11:29:26.128Z,49.99
2022-09-27T11:34:18.848Z,50.2
2022-09-27T11:39:11.337Z,50.14
2022-09-27T11:44:03.627Z,50.02
2022-09-27T11:48:55.977Z,49.83
2022-09-27T11:53:48.532Z,49.84
2022-09-27T11:58:40.888Z,49.81
2022-09-27T12:03:33.604Z,49.71
2022-09-27T12:08:26.098Z,49.55
2022-09-27T12:13:18.627Z,49.5
2022-09-27T12:18:11.221Z,49.26
2022-09-27T12:23:03.509Z,49.24
2022-09-27T12:27:55.736Z,49.33
2022-09-27T12:32:48.299Z,49.47
2022-09-27T12:37:40.932Z,49.17
2022-09-27T12:42:33.419Z,49.02
2022-09-27T12:47:25.848Z,48.93
2022-09-27T12:52:17.886Z,48.85
2022-09-27T12:57:12.642Z,48.7
2022-09-27T13:02:03.180Z,48.81
2022-09-27T13:06:55.837Z,49.03
2022-09-27T13:11:48.381Z,48.9
2022-09-27T13:16:40.829Z,48.77
2022-09-27T13:21:33.319Z,48.92
2022-09-27T13:26:25.873Z,48.66
2022-09-27T13:31:18.463Z,48.87
2022-09-27T13:36:10.832Z,48.85
2022-09-27T13:41:03.251Z,48.88
2022-09-27T13:45:55.645Z,48.79
2022-09-27T13:50:48.213Z,48.69
2022-09-27T13:55:40.591Z,48.73
2022-09-27T14:00:32.852Z,48.76
2022-09-27T14:05:25.300Z,48.76
2022-09-27T14:10:18.236Z,48.76
2022-09-27T14:15:10.829Z,48.93
2022-09-27T14:20:03.370Z,48.98
2022-09-27T14:24:55.791Z,48.86
2022-09-27T14:29:48.361Z,48.86
2022-09-27T14:34:40.821Z,48.92
2022-09-27T14:39:33.047Z,49.21
2022-09-27T14:44:28.188Z,49.14
2022-09-27T14:49:18.082Z,49.22
2022-09-27T14:54:10.437Z,49.22
2022-09-27T14:59:02.856Z,49.46
2022-09-27T15:03:55.461Z,49.4
2022-09-27T15:08:47.863Z,49.46
2022-09-27T15:13:40.310Z,49.36
2022-09-27T15:18:32.833Z,49.34
2022-09-27T15:23:25.467Z,49.51
2022-09-27T15:28:17.902Z,49.44
2022-09-27T15:38:02.997Z,49.45
2022-09-27T15:42:55.533Z,49.3
2022-09-27T15:47:47.881Z,49.95
2022-09-27T15:52:40.670Z,49.55
2022-09-27T15:57:33.359Z,49.81
2022-09-27T16:02:25.728Z,49.8
2022-09-27T16:07:18.352Z,50.19
2022-09-27T16:12:11.210Z,50.54
2022-09-27T16:17:03.576Z,51.27
2022-09-27T16:21:55.950Z,51.64
2022-09-27T16:26:48.734Z,52.98
2022-09-27T16:31:41.156Z,52.88
2022-09-27T16:36:33.437Z,53.17
2022-09-27T16:41:25.962Z,55.58
2022-09-27T16:46:19.025Z,53.85
2022-09-27T16:51:11.294Z,53.56
2022-09-27T16:56:03.753Z,54.1
2022-09-27T17:00:55.899Z,55.05
2022-09-27T17:05:48.415Z,54.22
2022-09-27T17:10:40.943Z,53.98
2022-09-27T17:15:33.459Z,53.05
2022-09-27T17:20:25.878Z,52.93
2022-09-27T17:25:18.362Z,54.58
2022-09-27T17:30:10.462Z,52.63
2022-09-27T17:35:02.973Z,52.99
2022-09-27T17:39:55.438Z,53.76
2022-09-27T17:44:47.782Z,51.72
2022-09-27T17:49:40.408Z,52.05
2022-09-27T17:54:32.826Z,51.76
2022-09-27T17:59:25.246Z,50.87
2022-09-27T18:04:17.771Z,51.22
